Time;durP1;ratioP1;P1;durP2;ratioP2;P2;SDS_P1;SDS_P2;PMS_P1;PMS_P2;Temp;Humidity;BMP_temperature;BMP_pressure;BME280_temperature;BME280_humidity;BME280_pressure;Samples;Min_cycle;Max_cycle;Signal;HPM_P1;HPM_P2
2023/04/17 00:01:38;;;;;;;33.20;19.83;;;8.10;99.90;;;;;;5053149;28;20633;-74
2023/04/17 00:04:09;;;;;;;36.72;20.42;;;7.60;99.90;;;;;;5071399;28;20060;-76
2023/04/17 00:06:36;;;;;;;36.15;20.42;;;8.00;99.90;;;;;;5071656;28;20045;-75
2023/04/17 00:09:02;;;;;;;35.65;21.73;;;8.20;99.90;;;;;;5071555;28;20048;-76
2023/04/17 00:11:28;;;;;;;34.90;21.67;;;8.30;99.90;;;;;;5071496;28;20113;-76
2023/04/17 00:13:54;;;;;;;38.42;22.40;;;7.60;99.90;;;;;;5071974;28;20119;-76
2023/04/17 00:16:19;;;;;;;38.78;21.83;;;7.90;99.90;;;;;;5070924;28;20402;-75
2023/04/17 00:18:45;;;;;;;38.40;22.33;;;7.90;99.90;;;;;;5047445;28;20044;-75
2023/04/17 00:21:11;;;;;;;37.45;22.58;;;7.70;99.90;;;;;;5068821;28;20041;-75
2023/04/17 00:23:38;;;;;;;45.42;23.13;;;7.70;99.90;;;;;;5071531;28;20040;-75
2023/04/17 00:26:03;;;;;;;40.28;22.42;;;7.60;99.90;;;;;;5070757;28;20059;-75
2023/04/17 00:28:29;;;;;;;42.75;23.38;;;7.60;99.90;;;;;;5070990;28;20129;-74
2023/04/17 00:30:57;;;;;;;42.33;24.50;;;8.50;99.90;;;;;;5071351;28;20028;-75
2023/04/17 00:33:22;;;;;;;38.53;21.95;;;7.60;99.90;;;;;;5071032;28;20040;-76
2023/04/17 00:35:48;;;;;;;45.13;24.05;;;7.60;99.90;;;;;;5071311;28;20040;-76
2023/04/17 00:38:14;;;;;;;39.97;23.40;;;7.60;99.90;;;;;;5071379;28;20072;-76
2023/04/17 00:40:40;;;;;;;41.55;23.60;;;8.30;99.90;;;;;;5070961;28;20426;-76
2023/04/17 00:43:06;;;;;;;41.05;24.17;;;8.20;99.90;;;;;;5071028;28;20076;-76
2023/04/17 00:45:33;;;;;;;41.45;24.45;;;7.70;99.90;;;;;;5070164;28;20141;-76
2023/04/17 00:48:02;;;;;;;44.63;24.13;;;7.70;99.90;;;;;;5055238;28;20099;-76
2023/04/17 00:50:28;;;;;;;42.38;24.75;;;7.70;99.90;;;;;;5070668;28;20056;-75
2023/04/17 00:52:54;;;;;;;49.13;26.98;;;7.70;99.90;;;;;;5070633;28;20131;-75
2023/04/17 00:55:20;;;;;;;43.78;25.60;;;7.90;99.90;;;;;;5070762;28;20073;-80
2023/04/17 00:57:49;;;;;;;49.38;28.20;;;7.70;99.90;;;;;;5070406;28;20048;-77
2023/04/17 01:00:16;;;;;;;44.03;26.67;;;7.70;99.90;;;;;;5070879;28;20037;-80
2023/04/17 01:02:45;;;;;;;44.13;27.05;;;7.70;99.90;;;;;;5071041;28;20044;-77
2023/04/17 01:05:11;;;;;;;43.03;25.73;;;7.70;99.90;;;;;;5069713;28;20051;-76
2023/04/17 01:07:38;;;;;;;48.10;27.30;;;8.40;99.90;;;;;;5062744;28;20518;-77
2023/04/17 01:10:04;;;;;;;47.55;27.27;;;7.70;99.90;;;;;;5070697;28;20040;-76
2023/04/17 01:12:30;;;;;;;46.22;27.35;;;7.70;99.90;;;;;;5070701;28;20040;-76
2023/04/17 01:14:56;;;;;;;48.25;25.80;;;8.00;99.90;;;;;;5070603;28;20044;-77
2023/04/17 01:17:24;;;;;;;44.30;25.23;;;7.70;99.90;;;;;;5070078;28;20121;-77
2023/04/17 01:19:51;;;;;;;39.00;23.70;;;7.70;99.90;;;;;;5070438;28;20119;-76
2023/04/17 01:22:19;;;;;;;37.42;23.27;;;7.60;99.90;;;;;;5070295;28;20060;-76
2023/04/17 01:24:45;;;;;;;41.30;24.42;;;8.30;99.90;;;;;;5070821;28;20475;-75
2023/04/17 01:27:12;;;;;;;40.03;23.88;;;7.60;99.90;;;;;;5070813;28;20094;-76
2023/04/17 01:29:38;;;;;;;45.00;25.27;;;7.90;99.90;;;;;;5070265;28;20494;-76
2023/04/17 01:32:04;;;;;;;40.50;22.70;;;7.90;99.90;;;;;;5070185;28;20033;-77
2023/04/17 01:34:30;;;;;;;54.92;22.65;;;7.60;99.90;;;;;;5070334;28;20123;-75
2023/04/17 01:36:55;;;;;;;53.97;22.70;;;7.60;99.90;;;;;;5070270;28;20052;-77
2023/04/17 01:39:21;;;;;;;50.38;21.95;;;8.20;99.90;;;;;;5070165;28;20043;-76
2023/04/17 01:41:47;;;;;;;42.35;23.13;;;7.80;99.90;;;;;;5040469;28;20551;-78
2023/04/17 01:44:12;;;;;;;40.05;22.58;;;8.20;99.90;;;;;;5064930;28;20045;-76
2023/04/17 01:46:38;;;;;;;36.00;21.90;;;7.70;99.90;;;;;;5069757;28;20067;-76
2023/04/17 01:49:04;;;;;;;34.83;21.98;;;7.50;99.90;;;;;;5070047;28;20055;-75
2023/04/17 01:51:30;;;;;;;37.63;22.90;;;7.70;99.90;;;;;;5069722;28;20052;-74
2023/04/17 01:53:55;;;;;;;40.40;23.63;;;8.20;99.90;;;;;;5069499;28;20410;-76
2023/04/17 01:56:21;;;;;;;41.22;24.23;;;7.50;99.90;;;;;;5069283;28;20037;-75
2023/04/17 01:58:47;;;;;;;38.83;21.85;;;7.50;99.90;;;;;;5068739;28;20052;-74
2023/04/17 02:01:12;;;;;;;44.05;21.77;;;7.50;99.90;;;;;;5069385;28;20067;-74
2023/04/17 02:03:38;;;;;;;45.60;23.80;;;7.50;99.90;;;;;;5058208;28;20045;-73
2023/04/17 02:06:04;;;;;;;44.97;23.48;;;8.30;99.90;;;;;;5068864;28;20740;-75
2023/04/17 02:08:30;;;;;;;43.83;23.75;;;7.50;99.90;;;;;;5062992;28;20045;-74
2023/04/17 02:10:55;;;;;;;43.25;22.73;;;7.50;99.90;;;;;;5060533;28;20049;-73
2023/04/17 02:13:21;;;;;;;39.53;20.40;;;7.50;99.90;;;;;;5069130;28;20037;-76
2023/04/17 02:15:47;;;;;;;77.70;23.30;;;7.50;99.90;;;;;;5068523;28;20047;-76
2023/04/17 02:18:12;;;;;;;36.20;20.33;;;8.10;99.90;;;;;;5068704;28;20522;-74
2023/04/17 02:20:38;;;;;;;45.95;22.58;;;7.50;99.90;;;;;;5069091;28;20048;-74
2023/04/17 02:23:05;;;;;;;38.63;22.42;;;7.50;99.90;;;;;;5065440;28;20505;-75
2023/04/17 02:25:31;;;;;;;45.78;23.45;;;7.50;99.90;;;;;;5063932;28;20056;-75
2023/04/17 02:27:57;;;;;;;50.25;24.75;;;8.20;99.90;;;;;;5069636;28;20090;-75
2023/04/17 02:30:25;;;;;;;45.80;24.73;;;7.50;99.90;;;;;;5070031;28;20045;-75
2023/04/17 02:32:52;;;;;;;40.45;24.92;;;7.40;99.90;;;;;;5069527;28;20079;-74
2023/04/17 02:35:21;;;;;;;63.00;24.77;;;7.40;99.90;;;;;;5069724;28;20135;-75
2023/04/17 02:37:47;;;;;;;54.40;24.65;;;7.40;99.90;;;;;;5068039;28;20041;-76
2023/04/17 02:40:13;;;;;;;41.05;23.20;;;7.30;99.90;;;;;;5069778;28;20059;-75
2023/04/17 02:42:39;;;;;;;62.85;23.15;;;7.40;99.90;;;;;;5058287;28;20094;-77
2023/04/17 02:45:05;;;;;;;49.55;22.48;;;7.50;99.90;;;;;;5059050;28;20040;-77
2023/04/17 02:47:31;;;;;;;42.03;20.33;;;7.30;99.90;;;;;;5069241;28;20090;-76
2023/04/17 02:49:58;;;;;;;40.80;20.88;;;7.40;99.90;;;;;;5069533;28;20163;-77
2023/04/17 02:52:26;;;;;;;40.03;20.50;;;7.90;99.90;;;;;;5069278;28;20047;-75
2023/04/17 02:54:51;;;;;;;36.33;20.40;;;8.00;99.90;;;;;;5069279;28;20083;-76
2023/04/17 02:57:17;;;;;;;37.00;20.38;;;8.10;99.90;;;;;;5069352;28;20080;-77
2023/04/17 02:59:43;;;;;;;46.95;20.15;;;7.30;99.90;;;;;;5069839;28;20464;-75
2023/04/17 03:02:08;;;;;;;36.75;21.60;;;7.30;99.90;;;;;;5049884;28;20490;-75
2023/04/17 03:04:37;;;;;;;46.78;20.50;;;7.80;99.90;;;;;;5034781;28;20056;-76
2023/04/17 03:07:03;;;;;;;73.80;20.73;;;7.90;99.90;;;;;;5069277;28;20048;-75
2023/04/17 03:09:29;;;;;;;42.90;20.98;;;7.90;99.90;;;;;;5071522;28;20041;-76
2023/04/17 03:11:55;;;;;;;54.97;21.75;;;7.80;99.90;;;;;;5035169;28;20052;-77
2023/04/17 03:14:21;;;;;;;48.25;20.42;;;8.00;99.90;;;;;;5053403;28;20048;-76
2023/04/17 03:16:47;;;;;;;34.10;19.17;;;8.00;99.90;;;;;;5061370;28;20044;-76
2023/04/17 03:19:12;;;;;;;46.90;22.23;;;7.60;99.90;;;;;;5073538;28;20094;-76
2023/04/17 03:21:38;;;;;;;42.45;22.35;;;8.20;99.90;;;;;;5073253;28;20033;-75
2023/04/17 03:24:04;;;;;;;35.13;20.48;;;7.20;99.90;;;;;;5073399;28;20041;-76
2023/04/17 03:26:29;;;;;;;34.60;20.08;;;7.20;99.90;;;;;;5072821;28;20082;-76
2023/04/17 03:28:55;;;;;;;29.13;19.08;;;7.30;99.90;;;;;;5054946;28;20054;-75
2023/04/17 03:31:22;;;;;;;32.22;18.95;;;7.30;99.90;;;;;;5073697;28;20091;-76
2023/04/17 03:33:48;;;;;;;34.72;18.88;;;7.90;99.90;;;;;;5072723;28;20044;-78
2023/04/17 03:36:16;;;;;;;33.38;18.85;;;8.00;99.90;;;;;;5054442;28;20056;-76
2023/04/17 03:38:42;;;;;;;49.28;20.52;;;8.10;99.90;;;;;;5073080;28;20048;-76
2023/04/17 03:41:09;;;;;;;28.77;17.67;;;7.90;99.90;;;;;;5072495;28;20045;-76
2023/04/17 03:43:34;;;;;;;28.05;17.95;;;7.80;99.90;;;;;;5072751;28;20045;-77
2023/04/17 03:46:00;;;;;;;39.97;19.58;;;7.30;99.90;;;;;;5073033;28;20106;-76
2023/04/17 03:48:26;;;;;;;36.72;19.70;;;7.60;99.90;;;;;;5072809;28;20044;-75
2023/04/17 03:50:52;;;;;;;58.75;20.42;;;7.30;99.90;;;;;;5072527;28;20911;-78
2023/04/17 03:53:18;;;;;;;39.08;20.60;;;7.90;99.90;;;;;;5072481;28;20052;-76
2023/04/17 03:55:43;;;;;;;80.35;23.40;;;7.20;99.90;;;;;;5072325;28;20041;-77
2023/04/17 03:58:09;;;;;;;63.63;24.75;;;7.60;99.90;;;;;;5072153;28;20052;-77
2023/04/17 04:00:36;;;;;;;49.28;24.33;;;7.10;99.90;;;;;;5072280;28;20699;-77
2023/04/17 04:03:02;;;;;;;62.65;25.75;;;7.50;99.90;;;;;;5072388;28;20048;-76
2023/04/17 04:05:28;;;;;;;61.53;24.95;;;7.20;99.90;;;;;;5072402;28;20049;-79
2023/04/17 04:07:54;;;;;;;71.15;25.95;;;7.10;99.90;;;;;;5072481;28;20498;-77
2023/04/17 04:10:20;;;;;;;54.05;26.08;;;7.20;99.90;;;;;;5060930;28;20041;-77
2023/04/17 04:12:46;;;;;;;61.20;27.10;;;7.10;99.90;;;;;;5052371;28;20044;-76
2023/04/17 04:15:12;;;;;;;62.03;27.33;;;7.80;99.90;;;;;;5052047;28;20084;-76
2023/04/17 04:17:37;;;;;;;110.20;28.52;;;7.10;99.90;;;;;;5052705;28;20091;-76
2023/04/17 04:20:05;;;;;;;63.67;26.05;;;7.20;99.90;;;;;;5071220;28;20055;-77
2023/04/17 04:22:33;;;;;;;73.57;25.17;;;7.10;99.90;;;;;;5072203;28;20044;-77
2023/04/17 04:24:59;;;;;;;114.80;25.48;;;7.10;99.90;;;;;;5071928;28;20048;-76
2023/04/17 04:27:26;;;;;;;66.80;24.33;;;7.10;99.90;;;;;;5072198;28;20476;-78
2023/04/17 04:29:52;;;;;;;124.65;26.17;;;7.10;99.90;;;;;;5071848;28;20048;-76
2023/04/17 04:32:17;;;;;;;39.22;22.00;;;7.10;99.90;;;;;;5071407;28;20040;-76
2023/04/17 04:34:43;;;;;;;73.15;22.23;;;7.10;99.90;;;;;;5052810;28;20643;-76
2023/04/17 04:37:14;;;;;;;94.30;22.85;;;7.10;99.90;;;;;;5053612;28;20087;-78
2023/04/17 04:39:40;;;;;;;86.43;22.25;;;7.50;99.90;;;;;;5071721;28;20045;-77
2023/04/17 04:42:08;;;;;;;74.78;21.42;;;7.30;99.90;;;;;;5053606;28;20585;-76
2023/04/17 04:44:36;;;;;;;41.35;20.88;;;7.00;99.90;;;;;;5071562;28;20067;-76
2023/04/17 04:47:01;;;;;;;73.47;22.42;;;7.10;99.90;;;;;;5054061;28;20415;-77
2023/04/17 04:49:27;;;;;;;83.57;19.95;;;7.10;99.90;;;;;;5071594;28;20041;-75
2023/04/17 04:51:53;;;;;;;66.60;21.25;;;7.00;99.90;;;;;;5071113;28;20091;-77
2023/04/17 04:54:19;;;;;;;34.47;20.50;;;7.10;99.90;;;;;;5071315;28;20589;-78
2023/04/17 04:56:45;;;;;;;49.45;22.20;;;7.00;99.90;;;;;;5071526;28;20131;-76
2023/04/17 04:59:10;;;;;;;56.40;21.73;;;7.70;99.90;;;;;;5053308;28;20782;-77
2023/04/17 05:01:38;;;;;;;56.97;23.33;;;7.90;99.90;;;;;;5071557;28;20526;-78
2023/04/17 05:04:04;;;;;;;53.60;23.95;;;7.80;99.90;;;;;;5070856;28;20047;-76
2023/04/17 05:06:30;;;;;;;89.45;25.48;;;7.00;99.90;;;;;;5071076;28;20044;-77
2023/04/17 05:08:55;;;;;;;52.97;23.52;;;7.00;99.90;;;;;;5070316;28;20779;-79
2023/04/17 05:11:21;;;;;;;93.13;25.80;;;7.70;99.90;;;;;;5070658;28;20098;-77
2023/04/17 05:13:47;;;;;;;57.92;26.85;;;7.60;99.90;;;;;;5070712;28;20048;-76
2023/04/17 05:16:12;;;;;;;78.00;27.90;;;7.10;99.90;;;;;;5071248;28;20043;-76
2023/04/17 05:18:38;;;;;;;65.00;27.98;;;7.40;99.90;;;;;;5052572;28;20331;-75
2023/04/17 05:21:04;;;;;;;76.13;27.48;;;7.10;99.90;;;;;;5070621;28;20040;-76
2023/04/17 05:23:30;;;;;;;182.18;30.63;;;7.10;99.90;;;;;;5071088;28;20414;-75
2023/04/17 05:25:55;;;;;;;73.40;25.17;;;7.30;99.90;;;;;;5053098;28;20059;-76
2023/04/17 05:28:21;;;;;;;121.80;29.88;;;7.10;99.90;;;;;;5070869;28;20140;-75
2023/04/17 05:30:47;;;;;;;90.28;28.42;;;7.10;99.90;;;;;;5070725;28;20040;-76
2023/04/17 05:33:13;;;;;;;70.15;28.83;;;7.50;99.90;;;;;;5070684;28;20118;-77
2023/04/17 05:35:38;;;;;;;90.05;29.10;;;7.10;99.90;;;;;;5070390;28;20045;-75
2023/04/17 05:38:06;;;;;;;67.15;26.90;;;7.10;99.90;;;;;;5070920;28;20051;-76
2023/04/17 05:40:32;;;;;;;53.28;26.67;;;7.10;99.90;;;;;;5070901;28;20056;-76
2023/04/17 05:43:06;;;;;;;66.82;28.45;;;7.90;99.90;;;;;;5070673;28;20040;-75
2023/04/17 05:45:31;;;;;;;50.95;25.77;;;7.60;99.90;;;;;;5070366;28;20129;-76
2023/04/17 05:47:57;;;;;;;68.15;28.38;;;7.60;99.90;;;;;;5070845;28;20076;-76
2023/04/17 05:50:28;;;;;;;54.00;27.40;;;8.00;99.90;;;;;;5069079;28;20067;-77
2023/04/17 05:53:03;;;;;;;56.03;29.00;;;7.60;99.90;;;;;;5070543;28;20040;-76
2023/04/17 05:55:28;;;;;;;;;;;7.30;99.90;;;;;;5070301;28;20040;-74
2023/04/17 05:57:57;;;;;;;53.40;25.55;;;7.30;99.90;;;;;;5069724;28;19974;-78
2023/04/17 06:00:26;;;;;;;52.88;26.48;;;7.30;99.90;;;;;;5070039;28;20098;-76
2023/04/17 06:02:52;;;;;;;57.45;28.83;;;7.40;99.90;;;;;;5058020;28;20132;-77
2023/04/17 06:05:17;;;;;;;55.20;28.00;;;8.00;99.90;;;;;;5050222;28;20128;-75
2023/04/17 06:07:43;;;;;;;53.15;26.70;;;8.20;99.90;;;;;;5050568;28;20096;-76
2023/04/17 06:10:09;;;;;;;54.05;27.58;;;8.30;99.90;;;;;;5050163;28;20488;-76
2023/04/17 06:12:36;;;;;;;53.80;26.13;;;7.40;99.90;;;;;;5050042;28;20110;-74
2023/04/17 06:15:02;;;;;;;56.65;26.70;;;8.30;99.90;;;;;;5049842;28;20492;-75
2023/04/17 06:17:29;;;;;;;45.08;25.17;;;8.20;99.90;;;;;;5049943;28;20059;-75
2023/04/17 06:19:55;;;;;;;46.42;24.83;;;8.40;99.90;;;;;;5031629;28;20047;-77
2023/04/17 06:22:21;;;;;;;46.72;24.35;;;8.10;99.90;;;;;;5049785;28;20128;-78
2023/04/17 06:24:47;;;;;;;44.03;23.65;;;7.60;99.90;;;;;;5049978;28;20048;-77
2023/04/17 06:27:12;;;;;;;51.63;26.08;;;7.70;99.90;;;;;;5031956;28;20502;-76
2023/04/17 06:29:38;;;;;;;44.60;23.60;;;7.70;99.90;;;;;;5049652;28;20131;-75
2023/04/17 06:32:05;;;;;;;46.58;25.10;;;7.80;99.90;;;;;;5061261;28;20046;-76
2023/04/17 06:34:31;;;;;;;41.63;23.05;;;7.80;99.90;;;;;;5051633;28;20131;-75
2023/04/17 06:36:57;;;;;;;43.38;24.92;;;7.90;99.90;;;;;;5052160;28;20048;-75
2023/04/17 06:39:23;;;;;;;40.35;22.25;;;7.90;99.90;;;;;;5069505;28;20444;-76
2023/04/17 06:41:49;;;;;;;39.08;22.80;;;8.00;99.90;;;;;;5069743;28;20040;-75
2023/04/17 06:44:15;;;;;;;40.35;21.90;;;8.60;99.90;;;;;;5069108;28;20052;-76
2023/04/17 06:46:41;;;;;;;38.55;21.90;;;8.80;99.90;;;;;;5069891;28;20832;-77
2023/04/17 06:49:07;;;;;;;36.60;21.05;;;8.60;99.90;;;;;;5070039;28;20033;-78
2023/04/17 06:54:22;;;;;;;33.60;20.13;;;8.30;99.90;;;;;;5016128;23;20054;-77
2023/04/17 06:56:47;;;;;;;35.13;21.63;;;8.90;99.90;;;;;;4988493;28;20493;-75
2023/04/17 06:59:13;;;;;;;37.92;22.90;;;8.40;99.90;;;;;;4961964;28;20038;-83
2023/04/17 07:01:48;;;;;;;37.78;21.77;;;8.90;99.90;;;;;;4990532;28;20050;-77
2023/04/17 07:04:14;;;;;;;40.45;22.33;;;8.40;99.90;;;;;;4970830;28;20494;-77
2023/04/17 07:11:02;;;;;;;33.60;20.35;;;8.60;99.90;;;;;;5009637;28;20470;-77
2023/04/17 07:13:34;;;;;;;35.63;21.70;;;8.70;99.90;;;;;;4929641;29;20078;-78
2023/04/17 07:16:29;;;;;;;33.28;20.77;;;9.40;99.90;;;;;;4929798;29;20771;-78
2023/04/17 07:18:55;;;;;;;33.00;20.35;;;8.90;99.90;;;;;;4929927;29;20056;-76
2023/04/17 07:21:20;;;;;;;33.40;21.15;;;9.00;99.90;;;;;;4924073;29;20048;-83
2023/04/17 07:23:46;;;;;;;32.90;21.13;;;9.50;99.90;;;;;;4920162;29;20518;-81
2023/04/17 07:26:12;;;;;;;38.45;21.40;;;9.40;99.90;;;;;;4912815;29;20070;-78
2023/04/17 07:28:38;;;;;;;36.17;21.15;;;9.10;99.90;;;;;;4919362;29;20040;-76
2023/04/17 07:31:08;;;;;;;41.22;22.88;;;9.20;99.90;;;;;;4929972;29;20208;-77
2023/04/17 07:33:37;;;;;;;36.03;22.40;;;9.90;99.90;;;;;;4913989;29;20050;-82
2023/04/17 07:36:04;;;;;;;29.52;20.40;;;9.90;99.90;;;;;;4929548;29;20511;-78
2023/04/17 07:38:31;;;;;;;30.60;20.73;;;9.40;99.90;;;;;;4914011;29;20139;-78
2023/04/17 07:40:57;;;;;;;29.85;20.00;;;9.40;99.90;;;;;;4926670;29;20140;-77
2023/04/17 07:43:22;;;;;;;28.90;20.30;;;10.00;99.90;;;;;;4928861;28;20635;-77
2023/04/17 07:45:48;;;;;;;31.17;21.50;;;9.10;99.90;;;;;;4997678;28;20125;-76
2023/04/17 07:48:17;;;;;;;28.25;20.83;;;9.60;99.90;;;;;;4990779;28;20069;-77
2023/04/17 07:50:42;;;;;;;31.02;21.67;;;9.60;99.90;;;;;;4990724;28;20122;-76
2023/04/17 07:53:08;;;;;;;28.80;21.08;;;10.40;99.90;;;;;;4990660;28;20137;-76
2023/04/17 07:55:33;;;;;;;33.08;22.17;;;10.20;99.90;;;;;;4987982;28;20050;-77
2023/04/17 07:58:02;;;;;;;35.45;25.33;;;10.00;99.90;;;;;;4974616;28;20051;-76
2023/04/17 08:00:31;;;;;;;33.88;24.52;;;10.00;99.90;;;;;;4974581;28;20597;-78
2023/04/17 08:02:57;;;;;;;34.00;23.45;;;10.10;99.90;;;;;;4956986;28;20058;-79
2023/04/17 08:05:23;;;;;;;32.83;23.50;;;10.10;99.90;;;;;;4974463;28;20425;-78
2023/04/17 08:07:48;;;;;;;32.67;23.63;;;10.20;99.90;;;;;;4974422;28;20458;-79
2023/04/17 08:10:14;;;;;;;33.70;24.02;;;10.30;99.90;;;;;;4971330;28;20047;-76
2023/04/17 08:12:40;;;;;;;33.83;24.55;;;11.00;99.90;;;;;;4993476;28;20046;-79
2023/04/17 08:15:06;;;;;;;31.55;22.98;;;11.20;99.90;;;;;;4993654;28;20409;-78
2023/04/17 08:17:32;;;;;;;33.00;23.05;;;10.70;99.90;;;;;;4993529;28;20413;-77
2023/04/17 08:19:57;;;;;;;32.08;25.35;;;11.40;99.90;;;;;;4993821;28;20049;-77
2023/04/17 08:22:24;;;;;;;30.05;23.30;;;11.60;99.90;;;;;;4993277;28;20556;-77
2023/04/17 08:24:56;;;;;;;35.97;22.58;;;11.50;99.90;;;;;;4978593;28;20053;-78
2023/04/17 08:27:24;;;;;;;30.80;22.67;;;11.10;99.90;;;;;;4974120;28;20063;-80
2023/04/17 08:29:52;;;;;;;30.67;24.10;;;11.30;99.90;;;;;;4974105;28;20389;-80
2023/04/17 08:32:19;;;;;;;29.08;23.10;;;11.40;99.90;;;;;;4974193;28;20403;-77
2023/04/17 08:34:45;;;;;;;32.42;23.33;;;11.60;99.90;;;;;;4973954;28;20047;-77
2023/04/17 08:37:11;;;;;;;31.92;22.63;;;11.80;99.90;;;;;;4991114;28;20437;-78
2023/04/17 08:39:37;;;;;;;31.60;23.35;;;12.00;99.90;;;;;;4993317;28;20050;-77
2023/04/17 08:42:07;;;;;;;32.55;23.05;;;12.30;99.90;;;;;;4959470;28;20400;-77
2023/04/17 08:44:32;;;;;;;30.92;23.65;;;12.00;99.90;;;;;;4959583;28;20493;-79
2023/04/17 08:46:58;;;;;;;27.85;22.15;;;12.10;99.90;;;;;;4993095;28;20046;-77
2023/04/17 08:49:28;;;;;;;30.45;22.63;;;12.20;99.90;;;;;;4993260;28;20456;-77
2023/04/17 08:51:54;;;;;;;27.08;22.13;;;12.40;99.90;;;;;;4992898;28;20035;-75
2023/04/17 08:54:20;;;;;;;31.67;22.05;;;12.60;99.90;;;;;;5000995;28;20516;-76
2023/04/17 08:56:49;;;;;;;25.98;22.05;;;12.80;99.90;;;;;;5000814;28;20058;-77
2023/04/17 08:59:16;;;;;;;26.83;22.23;;;13.20;99.90;;;;;;4992573;28;20113;-78
2023/04/17 09:02:02;;;;;;;27.27;21.40;;;12.90;99.90;;;;;;4992904;28;20089;-78
2023/04/17 09:04:39;;;;;;;24.10;20.73;;;13.40;99.90;;;;;;4992752;28;20050;-77
2023/04/17 09:07:06;;;;;;;22.20;19.33;;;13.40;99.90;;;;;;4992208;28;20050;-78
2023/04/17 09:09:55;;;;;;;22.85;19.15;;;13.60;99.90;;;;;;4992821;28;20050;-78
2023/04/17 09:12:25;;;;;;;23.10;19.88;;;13.80;99.90;;;;;;4932261;29;20083;-76
2023/04/17 09:14:51;;;;;;;22.70;18.38;;;14.10;99.90;;;;;;4932213;29;20601;-77
2023/04/17 09:17:19;;;;;;;21.77;18.05;;;14.50;99.90;;;;;;4932408;29;20063;-76
2023/04/17 09:20:06;;;;;;;22.58;18.88;;;14.40;99.90;;;;;;4931924;29;20051;-75
2023/04/17 09:22:32;;;;;;;20.00;17.75;;;14.60;99.90;;;;;;4931985;29;20064;-78
2023/04/17 09:24:58;;;;;;;23.08;17.55;;;14.80;99.90;;;;;;4933344;29;20126;-81
2023/04/17 09:27:27;;;;;;;22.33;18.48;;;15.10;99.90;;;;;;4932401;29;20104;-76
2023/04/17 09:29:58;;;;;;;24.85;17.10;;;15.10;99.90;;;;;;4900466;29;20091;-77
2023/04/17 09:32:25;;;;;;;22.90;17.00;;;15.20;99.90;;;;;;4932045;29;20048;-82
2023/04/17 09:34:53;;;;;;;21.35;15.52;;;15.50;99.90;;;;;;4931863;29;20040;-80
2023/04/17 09:37:20;;;;;;;20.45;16.05;;;15.70;99.90;;;;;;4931722;29;20070;-79
2023/04/17 09:40:06;;;;;;;19.45;15.10;;;15.80;99.90;;;;;;4932700;29;20043;-76
2023/04/17 09:42:32;;;;;;;21.83;15.32;;;16.10;99.90;;;;;;4931997;29;20730;-79
2023/04/17 09:45:18;;;;;;;18.88;14.65;;;16.30;99.90;;;;;;4931776;29;20067;-81
2023/04/17 09:47:46;;;;;;;18.80;15.60;;;16.20;99.90;;;;;;4931903;29;20083;-79
2023/04/17 09:50:23;;;;;;;18.95;14.85;;;16.30;99.90;;;;;;4982519;28;20169;-79
2023/04/17 09:52:53;;;;;;;19.70;14.65;;;16.30;99.90;;;;;;4991924;28;20057;-81
2023/04/17 09:55:20;;;;;;;19.67;14.95;;;16.30;99.90;;;;;;4991160;28;20054;-78
2023/04/17 09:57:57;;;;;;;17.75;14.50;;;16.20;99.90;;;;;;4992065;28;20062;-78
2023/04/17 10:00:28;;;;;;;16.98;14.50;;;16.10;99.90;;;;;;4991127;28;20409;-77
2023/04/17 10:02:55;;;;;;;18.55;14.15;;;16.20;99.90;;;;;;4998623;28;20046;-78
2023/04/17 10:05:25;;;;;;;18.25;14.88;;;16.00;99.90;;;;;;5000402;28;20553;-78
2023/04/17 10:07:51;;;;;;;17.33;13.43;;;16.00;99.90;;;;;;4991655;28;20100;-78
2023/04/17 10:10:33;;;;;;;18.35;14.73;;;16.00;99.90;;;;;;4991482;28;20042;-80
2023/04/17 10:13:06;;;;;;;19.48;13.80;;;15.90;99.90;;;;;;4991835;28;20413;-79
2023/04/17 10:15:34;;;;;;;16.48;13.38;;;16.00;99.90;;;;;;4973969;28;20042;-77
2023/04/17 10:18:22;;;;;;;18.45;12.80;;;16.10;99.90;;;;;;4990861;28;20085;-78
2023/04/17 10:20:49;;;;;;;16.45;13.70;;;16.30;99.90;;;;;;4991503;28;20104;-83
2023/04/17 10:23:34;;;;;;;17.10;13.90;;;16.40;99.90;;;;;;4973857;28;20046;-78
2023/04/17 10:26:24;;;;;;;16.90;12.60;;;16.50;99.90;;;;;;4991365;28;20552;-75
2023/04/17 10:28:52;;;;;;;19.73;13.43;;;16.50;99.90;;;;;;4991526;28;20404;-79
2023/04/17 10:31:18;;;;;;;20.98;13.60;;;16.60;99.90;;;;;;4991385;28;20042;-78
2023/04/17 10:33:48;;;;;;;19.15;13.20;;;16.60;99.90;;;;;;4991649;28;20113;-76
2023/04/17 10:36:39;;;;;;;16.25;12.60;;;16.70;99.90;;;;;;4990442;28;20523;-78
2023/04/17 10:39:13;;;;;;;16.50;12.75;;;16.70;99.90;;;;;;4991374;28;20081;-78
2023/04/17 10:42:02;;;;;;;17.83;12.85;;;16.80;99.90;;;;;;4974655;28;20108;-78
2023/04/17 10:44:33;;;;;;;16.98;13.68;;;17.00;99.90;;;;;;4990070;28;20379;-77
2023/04/17 10:47:14;;;;;;;17.88;12.82;;;17.20;99.90;;;;;;4991169;28;20490;-76
2023/04/17 10:49:54;;;;;;;16.58;13.52;;;17.30;99.90;;;;;;4990451;28;20089;-76
2023/04/17 10:52:32;;;;;;;17.83;12.57;;;17.50;99.90;;;;;;4991326;28;20105;-76
2023/04/17 10:55:05;;;;;;;15.27;12.40;;;17.70;99.90;;;;;;4990586;28;20076;-78
2023/04/17 10:57:55;;;;;;;18.10;12.65;;;17.70;99.90;;;;;;4990827;28;20054;-78
2023/04/17 11:00:29;;;;;;;20.48;13.20;;;17.80;99.90;;;;;;4991120;28;20510;-78
2023/04/17 11:02:55;;;;;;;15.80;12.85;;;17.80;99.90;;;;;;4989783;28;20064;-76
2023/04/17 11:05:22;;;;;;;16.95;13.05;;;17.90;99.90;;;;;;4990987;28;20034;-77
2023/04/17 11:07:51;;;;;;;17.15;13.18;;;18.10;99.90;;;;;;4990881;28;20053;-77
2023/04/17 11:10:19;;;;;;;16.08;13.40;;;18.10;99.90;;;;;;4973362;28;20579;-76
2023/04/17 11:12:52;;;;;;;16.83;12.88;;;18.20;99.90;;;;;;4991033;28;20064;-77
2023/04/17 11:15:27;;;;;;;19.70;13.50;;;18.00;99.90;;;;;;4973566;28;20058;-77
2023/04/17 11:17:55;;;;;;;19.08;13.25;;;18.10;99.90;;;;;;4990984;28;20051;-78
2023/04/17 11:20:25;;;;;;;18.98;13.43;;;18.00;99.90;;;;;;4991191;28;20374;-78
2023/04/17 11:22:51;;;;;;;17.50;13.63;;;18.20;99.90;;;;;;4973464;28;20093;-78
2023/04/17 11:25:21;;;;;;;17.58;12.95;;;18.20;99.90;;;;;;4973734;28;20102;-81
2023/04/17 11:27:50;;;;;;;16.42;12.98;;;18.40;99.90;;;;;;4990360;28;20050;-87
2023/04/17 11:30:39;;;;;;;18.63;13.73;;;18.40;99.90;;;;;;4974888;28;20054;-76
2023/04/17 11:33:07;;;;;;;16.08;12.80;;;18.40;99.90;;;;;;4995419;28;20061;-77
2023/04/17 11:35:35;;;;;;;18.50;13.43;;;18.40;99.90;;;;;;4994223;28;20061;-76
2023/04/17 11:38:11;;;;;;;17.10;13.27;;;18.40;99.90;;;;;;4977178;28;20054;-76
2023/04/17 11:40:50;;;;;;;18.70;14.55;;;18.20;99.90;;;;;;4976592;28;20100;-80
2023/04/17 11:43:17;;;;;;;17.73;14.30;;;18.30;99.90;;;;;;4993700;28;20457;-76
2023/04/17 11:45:45;;;;;;;18.98;13.73;;;18.50;99.90;;;;;;4994112;28;20035;-78
2023/04/17 11:48:12;;;;;;;20.17;14.20;;;18.60;99.90;;;;;;4994199;28;20142;-81
2023/04/17 11:50:41;;;;;;;17.90;13.20;;;18.70;99.90;;;;;;4994524;28;20082;-91
2023/04/17 11:53:06;;;;;;;37.83;13.07;;;18.80;99.90;;;;;;4994077;28;20054;-79
2023/04/17 11:55:33;;;;;;;17.67;13.05;;;18.70;99.90;;;;;;4993818;28;20121;-76
2023/04/17 11:58:05;;;;;;;18.08;13.00;;;18.90;99.90;;;;;;4994328;28;20054;-78
2023/04/17 12:00:31;;;;;;;19.92;12.15;;;19.00;99.90;;;;;;4994130;28;20038;-79
2023/04/17 12:02:59;;;;;;;19.10;12.73;;;19.10;99.90;;;;;;4976511;28;20117;-75
2023/04/17 12:05:26;;;;;;;16.60;12.02;;;18.90;99.90;;;;;;4993985;28;20042;-76
2023/04/17 12:08:03;;;;;;;17.77;12.38;;;19.00;99.90;;;;;;4962977;28;20054;-74
2023/04/17 12:10:41;;;;;;;18.25;12.38;;;19.00;99.90;;;;;;4961295;28;20045;-74
2023/04/17 12:13:08;;;;;;;14.70;11.50;;;19.20;99.90;;;;;;5001260;28;20041;-75
2023/04/17 12:15:34;;;;;;;17.60;11.38;;;19.20;99.90;;;;;;5002485;28;20788;-85
2023/04/17 12:18:04;;;;;;;17.38;11.70;;;19.50;99.90;;;;;;5002398;28;20493;-74
2023/04/17 12:20:34;;;;;;;19.90;13.00;;;19.40;99.90;;;;;;5003511;28;20044;-78
2023/04/17 12:23:00;;;;;;;16.77;12.93;;;19.20;99.90;;;;;;4983574;28;20477;-74
2023/04/17 12:25:26;;;;;;;15.70;12.23;;;19.10;99.90;;;;;;5003327;28;20053;-73
2023/04/17 12:27:51;;;;;;;22.98;12.57;;;19.20;99.90;;;;;;5005062;28;20041;-79
2023/04/17 12:30:17;;;;;;;18.13;12.75;;;19.30;99.90;;;;;;5002928;28;20067;-85
2023/04/17 12:32:47;;;;;;;15.23;11.80;;;19.30;99.90;;;;;;4997956;28;20033;-77
2023/04/17 12:35:17;;;;;;;19.13;12.50;;;19.30;99.90;;;;;;4996622;28;20051;-74
2023/04/17 12:37:47;;;;;;;19.67;12.73;;;19.20;99.90;;;;;;5004752;28;20046;-74
2023/04/17 12:40:15;;;;;;;18.00;12.30;;;19.00;99.90;;;;;;5004289;28;20826;-74
2023/04/17 12:42:41;;;;;;;18.05;13.13;;;19.20;99.90;;;;;;4975464;28;20050;-75
2023/04/17 12:45:07;;;;;;;20.17;13.32;;;19.50;99.90;;;;;;5001657;28;20042;-76